sensor_id;sensor_type;location;lat;lon;timestamp;temperature;humidity
7844;DHT22;3967;48.702;9.326;2023-06-10T00:00:24;20.70;66.50
7844;DHT22;3967;48.702;9.326;2023-06-10T00:02:51;20.70;66.60
7844;DHT22;3967;48.702;9.326;2023-06-10T00:05:17;20.60;67.50
7844;DHT22;3967;48.702;9.326;2023-06-10T00:07:48;20.60;66.80
7844;DHT22;3967;48.702;9.326;2023-06-10T00:10:16;20.60;67.50
7844;DHT22;3967;48.702;9.326;2023-06-10T00:12:42;20.60;67.50
7844;DHT22;3967;48.702;9.326;2023-06-10T00:15:10;20.50;67.60
7844;DHT22;3967;48.702;9.326;2023-06-10T00:17:37;20.60;67.70
7844;DHT22;3967;48.702;9.326;2023-06-10T00:20:10;20.60;67.80
7844;DHT22;3967;48.702;9.326;2023-06-10T00:22:40;20.60;67.80
7844;DHT22;3967;48.702;9.326;2023-06-10T00:25:09;20.60;68.10
7844;DHT22;3967;48.702;9.326;2023-06-10T00:27:37;20.50;68.00
7844;DHT22;3967;48.702;9.326;2023-06-10T00:30:05;20.30;68.70
7844;DHT22;3967;48.702;9.326;2023-06-10T00:32:34;20.30;68.80
7844;DHT22;3967;48.702;9.326;2023-06-10T00:35:01;20.30;68.90
7844;DHT22;3967;48.702;9.326;2023-06-10T00:37:28;20.40;69.00
7844;DHT22;3967;48.702;9.326;2023-06-10T00:39:56;20.40;68.80
7844;DHT22;3967;48.702;9.326;2023-06-10T00:42:22;20.40;68.70
7844;DHT22;3967;48.702;9.326;2023-06-10T00:44:51;20.50;69.00
7844;DHT22;3967;48.702;9.326;2023-06-10T00:47:18;20.40;69.00
7844;DHT22;3967;48.702;9.326;2023-06-10T00:49:45;20.40;69.40
7844;DHT22;3967;48.702;9.326;2023-06-10T00:52:14;20.40;69.30
7844;DHT22;3967;48.702;9.326;2023-06-10T00:54:42;20.30;69.30
7844;DHT22;3967;48.702;9.326;2023-06-10T00:57:09;20.30;69.30
7844;DHT22;3967;48.702;9.326;2023-06-10T00:59:36;20.30;69.30
7844;DHT22;3967;48.702;9.326;2023-06-10T01:02:04;20.20;69.50
7844;DHT22;3967;48.702;9.326;2023-06-10T01:04:30;20.20;69.40
7844;DHT22;3967;48.702;9.326;2023-06-10T01:10:04;20.40;69.70
7844;DHT22;3967;48.702;9.326;2023-06-10T01:12:55;20.40;69.90
7844;DHT22;3967;48.702;9.326;2023-06-10T01:15:26;20.30;70.40
7844;DHT22;3967;48.702;9.326;2023-06-10T01:20:31;20.20;71.10
7844;DHT22;3967;48.702;9.326;2023-06-10T01:23:00;20.20;71.60
7844;DHT22;3967;48.702;9.326;2023-06-10T01:25:28;20.20;71.70
7844;DHT22;3967;48.702;9.326;2023-06-10T01:33:20;20.20;72.40
7844;DHT22;3967;48.702;9.326;2023-06-10T01:35:50;20.10;72.40
7844;DHT22;3967;48.702;9.326;2023-06-10T01:38:19;20.00;72.90
7844;DHT22;3967;48.702;9.326;2023-06-10T01:40:48;19.80;72.80
7844;DHT22;3967;48.702;9.326;2023-06-10T01:43:15;19.80;72.80
7844;DHT22;3967;48.702;9.326;2023-06-10T01:45:42;19.80;72.60
7844;DHT22;3967;48.702;9.326;2023-06-10T01:48:08;19.80;72.80
7844;DHT22;3967;48.702;9.326;2023-06-10T01:50:35;19.80;72.70
7844;DHT22;3967;48.702;9.326;2023-06-10T01:53:03;19.70;72.60
7844;DHT22;3967;48.702;9.326;2023-06-10T01:55:30;19.80;73.40
7844;DHT22;3967;48.702;9.326;2023-06-10T01:57:57;19.80;73.50
7844;DHT22;3967;48.702;9.326;2023-06-10T02:00:24;19.80;73.70
7844;DHT22;3967;48.702;9.326;2023-06-10T02:02:50;19.80;74.30
7844;DHT22;3967;48.702;9.326;2023-06-10T02:05:19;19.70;74.80
7844;DHT22;3967;48.702;9.326;2023-06-10T02:07:45;19.70;75.00
7844;DHT22;3967;48.702;9.326;2023-06-10T02:10:12;19.70;75.10
7844;DHT22;3967;48.702;9.326;2023-06-10T02:12:39;19.70;75.00
7844;DHT22;3967;48.702;9.326;2023-06-10T02:15:05;19.70;75.10
7844;DHT22;3967;48.702;9.326;2023-06-10T02:17:33;19.70;75.40
7844;DHT22;3967;48.702;9.326;2023-06-10T02:20:00;19.60;75.40
7844;DHT22;3967;48.702;9.326;2023-06-10T02:22:33;19.50;76.20
7844;DHT22;3967;48.702;9.326;2023-06-10T02:25:00;19.50;75.90
7844;DHT22;3967;48.702;9.326;2023-06-10T02:27:27;19.50;76.00
7844;DHT22;3967;48.702;9.326;2023-06-10T02:29:53;19.30;76.30
7844;DHT22;3967;48.702;9.326;2023-06-10T02:32:20;19.40;76.70
7844;DHT22;3967;48.702;9.326;2023-06-10T02:34:47;19.40;77.10
7844;DHT22;3967;48.702;9.326;2023-06-10T02:37:16;19.30;77.10
7844;DHT22;3967;48.702;9.326;2023-06-10T02:39:42;19.30;77.20
7844;DHT22;3967;48.702;9.326;2023-06-10T02:42:09;19.30;77.40
7844;DHT22;3967;48.702;9.326;2023-06-10T02:44:37;19.20;77.40
7844;DHT22;3967;48.702;9.326;2023-06-10T02:47:04;19.30;77.60
7844;DHT22;3967;48.702;9.326;2023-06-10T02:49:31;19.20;77.90
7844;DHT22;3967;48.702;9.326;2023-06-10T02:51:58;19.20;77.70
7844;DHT22;3967;48.702;9.326;2023-06-10T02:54:25;19.20;77.80
7844;DHT22;3967;48.702;9.326;2023-06-10T02:56:52;19.10;77.70
7844;DHT22;3967;48.702;9.326;2023-06-10T02:59:19;19.10;77.70
7844;DHT22;3967;48.702;9.326;2023-06-10T03:01:46;19.00;77.70
7844;DHT22;3967;48.702;9.326;2023-06-10T03:04:13;19.00;78.20
7844;DHT22;3967;48.702;9.326;2023-06-10T03:06:41;18.90;78.30
7844;DHT22;3967;48.702;9.326;2023-06-10T03:09:10;18.90;78.10
7844;DHT22;3967;48.702;9.326;2023-06-10T03:11:36;18.90;78.00
7844;DHT22;3967;48.702;9.326;2023-06-10T03:14:03;18.90;78.00
7844;DHT22;3967;48.702;9.326;2023-06-10T03:16:30;18.90;78.30
7844;DHT22;3967;48.702;9.326;2023-06-10T03:18:58;18.80;78.50
7844;DHT22;3967;48.702;9.326;2023-06-10T03:21:25;18.90;78.50
7844;DHT22;3967;48.702;9.326;2023-06-10T03:23:52;18.90;78.70
7844;DHT22;3967;48.702;9.326;2023-06-10T03:26:19;18.80;78.60
7844;DHT22;3967;48.702;9.326;2023-06-10T03:28:48;18.90;79.10
7844;DHT22;3967;48.702;9.326;2023-06-10T03:31:15;18.80;79.00
7844;DHT22;3967;48.702;9.326;2023-06-10T03:33:43;18.80;79.20
7844;DHT22;3967;48.702;9.326;2023-06-10T03:36:10;18.70;79.50
7844;DHT22;3967;48.702;9.326;2023-06-10T03:38:37;18.60;80.10
7844;DHT22;3967;48.702;9.326;2023-06-10T03:41:04;18.60;80.10
7844;DHT22;3967;48.702;9.326;2023-06-10T03:43:31;18.40;80.20
7844;DHT22;3967;48.702;9.326;2023-06-10T03:45:57;18.50;80.60
7844;DHT22;3967;48.702;9.326;2023-06-10T03:48:25;18.50;80.60
7844;DHT22;3967;48.702;9.326;2023-06-10T03:50:51;18.40;81.00
7844;DHT22;3967;48.702;9.326;2023-06-10T03:53:19;18.40;81.40
7844;DHT22;3967;48.702;9.326;2023-06-10T03:55:45;18.40;81.40
7844;DHT22;3967;48.702;9.326;2023-06-10T03:58:12;18.40;81.70
7844;DHT22;3967;48.702;9.326;2023-06-10T04:00:42;18.40;81.60
7844;DHT22;3967;48.702;9.326;2023-06-10T04:03:09;18.50;81.10
7844;DHT22;3967;48.702;9.326;2023-06-10T04:05:41;18.50;81.80
7844;DHT22;3967;48.702;9.326;2023-06-10T04:08:08;18.50;82.30
7844;DHT22;3967;48.702;9.326;2023-06-10T04:10:35;18.40;82.60
7844;DHT22;3967;48.702;9.326;2023-06-10T04:13:02;18.60;82.90
7844;DHT22;3967;48.702;9.326;2023-06-10T04:15:30;18.60;82.70
7844;DHT22;3967;48.702;9.326;2023-06-10T04:17:59;18.70;82.10
7844;DHT22;3967;48.702;9.326;2023-06-10T04:20:27;18.90;82.80
7844;DHT22;3967;48.702;9.326;2023-06-10T04:22:54;18.80;82.80
7844;DHT22;3967;48.702;9.326;2023-06-10T04:25:21;19.00;82.90
7844;DHT22;3967;48.702;9.326;2023-06-10T04:27:48;18.90;82.10
7844;DHT22;3967;48.702;9.326;2023-06-10T04:30:16;18.90;82.10
7844;DHT22;3967;48.702;9.326;2023-06-10T04:32:43;19.10;82.00
7844;DHT22;3967;48.702;9.326;2023-06-10T04:35:13;19.40;82.90
7844;DHT22;3967;48.702;9.326;2023-06-10T04:37:40;19.50;81.80
7844;DHT22;3967;48.702;9.326;2023-06-10T04:40:08;19.70;81.20
7844;DHT22;3967;48.702;9.326;2023-06-10T04:42:36;19.70;81.10
7844;DHT22;3967;48.702;9.326;2023-06-10T04:45:03;19.60;81.20
7844;DHT22;3967;48.702;9.326;2023-06-10T04:47:30;19.70;81.40
7844;DHT22;3967;48.702;9.326;2023-06-10T04:50:01;19.70;81.20
7844;DHT22;3967;48.702;9.326;2023-06-10T04:52:27;19.80;80.80
7844;DHT22;3967;48.702;9.326;2023-06-10T04:54:54;19.90;80.30
7844;DHT22;3967;48.702;9.326;2023-06-10T04:57:21;19.90;80.60
7844;DHT22;3967;48.702;9.326;2023-06-10T04:59:48;19.90;80.60
7844;DHT22;3967;48.702;9.326;2023-06-10T05:02:15;20.10;80.50
7844;DHT22;3967;48.702;9.326;2023-06-10T05:04:41;20.20;79.20
7844;DHT22;3967;48.702;9.326;2023-06-10T05:07:08;20.20;79.40
7844;DHT22;3967;48.702;9.326;2023-06-10T05:09:35;20.30;79.70
7844;DHT22;3967;48.702;9.326;2023-06-10T05:12:02;20.20;79.70
7844;DHT22;3967;48.702;9.326;2023-06-10T05:14:29;20.20;79.70
7844;DHT22;3967;48.702;9.326;2023-06-10T05:16:56;20.50;79.20
7844;DHT22;3967;48.702;9.326;2023-06-10T05:19:23;20.50;78.80
7844;DHT22;3967;48.702;9.326;2023-06-10T05:21:50;20.50;79.20
7844;DHT22;3967;48.702;9.326;2023-06-10T05:24:17;20.40;79.10
7844;DHT22;3967;48.702;9.326;2023-06-10T05:26:43;20.60;78.50
7844;DHT22;3967;48.702;9.326;2023-06-10T05:29:10;20.70;79.10
7844;DHT22;3967;48.702;9.326;2023-06-10T05:31:37;21.00;78.00
7844;DHT22;3967;48.702;9.326;2023-06-10T05:34:04;20.90;78.80
7844;DHT22;3967;48.702;9.326;2023-06-10T05:36:31;21.00;78.10
7844;DHT22;3967;48.702;9.326;2023-06-10T05:38:59;21.20;76.90
7844;DHT22;3967;48.702;9.326;2023-06-10T05:41:25;21.40;76.30
7844;DHT22;3967;48.702;9.326;2023-06-10T05:43:52;21.50;76.20
7844;DHT22;3967;48.702;9.326;2023-06-10T05:46:19;21.50;76.60
7844;DHT22;3967;48.702;9.326;2023-06-10T05:48:46;21.70;75.60
7844;DHT22;3967;48.702;9.326;2023-06-10T05:51:13;21.80;75.90
7844;DHT22;3967;48.702;9.326;2023-06-10T05:53:40;21.90;75.00
7844;DHT22;3967;48.702;9.326;2023-06-10T05:56:06;22.00;75.30
7844;DHT22;3967;48.702;9.326;2023-06-10T05:58:33;22.30;74.50
7844;DHT22;3967;48.702;9.326;2023-06-10T06:01:00;22.20;75.20
7844;DHT22;3967;48.702;9.326;2023-06-10T06:03:27;22.60;74.30
7844;DHT22;3967;48.702;9.326;2023-06-10T06:05:55;22.70;74.50
7844;DHT22;3967;48.702;9.326;2023-06-10T06:08:22;22.60;75.20
7844;DHT22;3967;48.702;9.326;2023-06-10T06:10:49;23.00;73.90
7844;DHT22;3967;48.702;9.326;2023-06-10T06:13:16;23.00;74.30
7844;DHT22;3967;48.702;9.326;2023-06-10T06:15:43;23.20;74.60
7844;DHT22;3967;48.702;9.326;2023-06-10T06:18:10;23.60;73.30
7844;DHT22;3967;48.702;9.326;2023-06-10T06:20:37;23.50;73.10
7844;DHT22;3967;48.702;9.326;2023-06-10T06:23:03;23.60;73.80
7844;DHT22;3967;48.702;9.326;2023-06-10T06:25:30;23.60;72.30
7844;DHT22;3967;48.702;9.326;2023-06-10T06:27:57;23.80;70.20
7844;DHT22;3967;48.702;9.326;2023-06-10T06:30:24;23.70;70.80
7844;DHT22;3967;48.702;9.326;2023-06-10T06:32:50;23.70;71.70
7844;DHT22;3967;48.702;9.326;2023-06-10T06:35:18;23.40;71.30
7844;DHT22;3967;48.702;9.326;2023-06-10T06:37:45;23.60;71.50
7844;DHT22;3967;48.702;9.326;2023-06-10T06:40:12;24.00;71.10
7844;DHT22;3967;48.702;9.326;2023-06-10T06:42:39;23.90;70.20
7844;DHT22;3967;48.702;9.326;2023-06-10T06:45:06;23.90;70.70
7844;DHT22;3967;48.702;9.326;2023-06-10T06:47:33;24.00;71.10
7844;DHT22;3967;48.702;9.326;2023-06-10T06:50:00;24.30;70.20
7844;DHT22;3967;48.702;9.326;2023-06-10T06:52:28;24.60;69.90
7844;DHT22;3967;48.702;9.326;2023-06-10T06:54:55;24.70;68.80
7844;DHT22;3967;48.702;9.326;2023-06-10T06:57:21;25.10;69.10
7844;DHT22;3967;48.702;9.326;2023-06-10T06:59:49;24.90;69.10
7844;DHT22;3967;48.702;9.326;2023-06-10T07:02:16;25.10;69.20
7844;DHT22;3967;48.702;9.326;2023-06-10T07:04:43;25.20;68.80
7844;DHT22;3967;48.702;9.326;2023-06-10T07:07:10;25.40;68.00
7844;DHT22;3967;48.702;9.326;2023-06-10T07:09:37;25.60;68.00
7844;DHT22;3967;48.702;9.326;2023-06-10T07:12:04;25.50;67.50
7844;DHT22;3967;48.702;9.326;2023-06-10T07:14:32;25.10;67.40
7844;DHT22;3967;48.702;9.326;2023-06-10T07:16:59;25.10;67.90
7844;DHT22;3967;48.702;9.326;2023-06-10T07:19:26;25.40;67.40
7844;DHT22;3967;48.702;9.326;2023-06-10T07:21:52;24.80;66.80
7844;DHT22;3967;48.702;9.326;2023-06-10T07:24:19;25.10;67.10
7844;DHT22;3967;48.702;9.326;2023-06-10T07:26:47;25.20;68.10
7844;DHT22;3967;48.702;9.326;2023-06-10T07:29:13;25.40;67.40
7844;DHT22;3967;48.702;9.326;2023-06-10T07:31:41;25.60;66.40
7844;DHT22;3967;48.702;9.326;2023-06-10T07:34:08;25.60;67.50
7844;DHT22;3967;48.702;9.326;2023-06-10T07:36:35;25.70;66.20
7844;DHT22;3967;48.702;9.326;2023-06-10T07:39:03;25.40;65.80
7844;DHT22;3967;48.702;9.326;2023-06-10T07:41:29;25.70;66.70
7844;DHT22;3967;48.702;9.326;2023-06-10T07:43:56;25.70;65.70
7844;DHT22;3967;48.702;9.326;2023-06-10T07:46:23;25.80;66.00
7844;DHT22;3967;48.702;9.326;2023-06-10T07:48:51;26.10;65.40
7844;DHT22;3967;48.702;9.326;2023-06-10T07:51:18;26.30;65.30
7844;DHT22;3967;48.702;9.326;2023-06-10T07:53:44;26.70;64.50
7844;DHT22;3967;48.702;9.326;2023-06-10T07:56:11;26.80;63.90
7844;DHT22;3967;48.702;9.326;2023-06-10T07:58:38;26.70;63.90
7844;DHT22;3967;48.702;9.326;2023-06-10T08:01:05;26.20;63.60
7844;DHT22;3967;48.702;9.326;2023-06-10T08:03:32;26.60;63.90
7844;DHT22;3967;48.702;9.326;2023-06-10T08:05:58;26.70;63.70
7844;DHT22;3967;48.702;9.326;2023-06-10T08:08:25;26.80;63.50
7844;DHT22;3967;48.702;9.326;2023-06-10T08:10:52;26.40;63.40
7844;DHT22;3967;48.702;9.326;2023-06-10T08:13:19;26.70;63.50
7844;DHT22;3967;48.702;9.326;2023-06-10T08:15:45;26.50;63.20
7844;DHT22;3967;48.702;9.326;2023-06-10T08:18:14;26.30;62.20
7844;DHT22;3967;48.702;9.326;2023-06-10T08:20:41;26.30;62.70
7844;DHT22;3967;48.702;9.326;2023-06-10T08:23:08;26.20;63.50
7844;DHT22;3967;48.702;9.326;2023-06-10T08:25:34;26.30;63.10
7844;DHT22;3967;48.702;9.326;2023-06-10T08:28:01;26.40;64.40
7844;DHT22;3967;48.702;9.326;2023-06-10T08:30:28;26.50;63.30
7844;DHT22;3967;48.702;9.326;2023-06-10T08:32:55;26.80;62.30
7844;DHT22;3967;48.702;9.326;2023-06-10T08:35:22;26.80;62.00
7844;DHT22;3967;48.702;9.326;2023-06-10T08:37:49;27.00;61.50
7844;DHT22;3967;48.702;9.326;2023-06-10T08:40:16;26.80;61.60
7844;DHT22;3967;48.702;9.326;2023-06-10T08:42:48;26.90;62.60
7844;DHT22;3967;48.702;9.326;2023-06-10T08:45:18;27.10;61.50
7844;DHT22;3967;48.702;9.326;2023-06-10T08:47:46;27.60;62.30
7844;DHT22;3967;48.702;9.326;2023-06-10T08:50:16;27.60;60.50
7844;DHT22;3967;48.702;9.326;2023-06-10T08:52:44;27.90;60.00
7844;DHT22;3967;48.702;9.326;2023-06-10T08:55:42;27.70;59.60
7844;DHT22;3967;48.702;9.326;2023-06-10T08:58:10;27.70;59.80
7844;DHT22;3967;48.702;9.326;2023-06-10T09:00:39;27.80;60.10
7844;DHT22;3967;48.702;9.326;2023-06-10T09:03:06;27.90;59.50
7844;DHT22;3967;48.702;9.326;2023-06-10T09:05:35;27.80;59.50
7844;DHT22;3967;48.702;9.326;2023-06-10T09:08:05;28.00;59.70
7844;DHT22;3967;48.702;9.326;2023-06-10T09:10:33;27.80;58.40
7844;DHT22;3967;48.702;9.326;2023-06-10T09:12:59;27.40;59.60
7844;DHT22;3967;48.702;9.326;2023-06-10T09:15:26;27.80;59.50
7844;DHT22;3967;48.702;9.326;2023-06-10T09:17:53;28.10;59.00
7844;DHT22;3967;48.702;9.326;2023-06-10T09:20:20;28.10;58.50
7844;DHT22;3967;48.702;9.326;2023-06-10T09:22:47;27.80;58.10
7844;DHT22;3967;48.702;9.326;2023-06-10T09:25:14;28.10;58.50
7844;DHT22;3967;48.702;9.326;2023-06-10T09:27:49;27.90;58.10
7844;DHT22;3967;48.702;9.326;2023-06-10T09:30:31;28.10;58.10
7844;DHT22;3967;48.702;9.326;2023-06-10T09:33:00;28.20;57.90
7844;DHT22;3967;48.702;9.326;2023-06-10T09:35:29;28.20;58.00
7844;DHT22;3967;48.702;9.326;2023-06-10T09:38:00;28.50;58.20
7844;DHT22;3967;48.702;9.326;2023-06-10T09:40:27;28.60;57.60
7844;DHT22;3967;48.702;9.326;2023-06-10T09:42:59;28.50;57.80
7844;DHT22;3967;48.702;9.326;2023-06-10T09:45:31;28.20;56.60
7844;DHT22;3967;48.702;9.326;2023-06-10T09:47:58;28.20;57.30
7844;DHT22;3967;48.702;9.326;2023-06-10T09:50:25;28.30;57.80
7844;DHT22;3967;48.702;9.326;2023-06-10T09:52:52;28.50;57.80
7844;DHT22;3967;48.702;9.326;2023-06-10T09:55:19;28.50;57.40
7844;DHT22;3967;48.702;9.326;2023-06-10T09:57:49;28.50;57.60
7844;DHT22;3967;48.702;9.326;2023-06-10T10:00:17;28.90;56.80
7844;DHT22;3967;48.702;9.326;2023-06-10T10:02:48;28.60;56.30
7844;DHT22;3967;48.702;9.326;2023-06-10T10:05:17;28.40;56.50
7844;DHT22;3967;48.702;9.326;2023-06-10T10:07:44;28.50;56.30
7844;DHT22;3967;48.702;9.326;2023-06-10T10:10:12;28.50;56.60
7844;DHT22;3967;48.702;9.326;2023-06-10T10:12:40;28.80;55.70
7844;DHT22;3967;48.702;9.326;2023-06-10T10:15:09;29.00;55.40
7844;DHT22;3967;48.702;9.326;2023-06-10T10:18:00;28.90;56.10
7844;DHT22;3967;48.702;9.326;2023-06-10T10:20:31;28.50;55.60
7844;DHT22;3967;48.702;9.326;2023-06-10T10:23:02;28.70;55.40
7844;DHT22;3967;48.702;9.326;2023-06-10T10:25:37;28.40;55.60
7844;DHT22;3967;48.702;9.326;2023-06-10T10:28:15;28.10;56.30
7844;DHT22;3967;48.702;9.326;2023-06-10T10:30:52;28.00;56.90
7844;DHT22;3967;48.702;9.326;2023-06-10T10:33:22;27.70;57.80
7844;DHT22;3967;48.702;9.326;2023-06-10T10:35:51;27.50;56.90
7844;DHT22;3967;48.702;9.326;2023-06-10T10:38:19;27.70;56.30
7844;DHT22;3967;48.702;9.326;2023-06-10T10:40:47;27.80;56.10
7844;DHT22;3967;48.702;9.326;2023-06-10T10:43:15;27.80;57.00
7844;DHT22;3967;48.702;9.326;2023-06-10T10:45:45;27.90;56.00
7844;DHT22;3967;48.702;9.326;2023-06-10T10:48:12;28.40;55.20
7844;DHT22;3967;48.702;9.326;2023-06-10T10:50:44;28.40;54.10
7844;DHT22;3967;48.702;9.326;2023-06-10T10:53:22;28.50;54.90
7844;DHT22;3967;48.702;9.326;2023-06-10T10:56:07;28.80;53.70
7844;DHT22;3967;48.702;9.326;2023-06-10T10:58:40;29.20;53.40
7844;DHT22;3967;48.702;9.326;2023-06-10T11:01:14;29.30;54.20
7844;DHT22;3967;48.702;9.326;2023-06-10T11:03:45;29.40;54.20
7844;DHT22;3967;48.702;9.326;2023-06-10T11:06:14;29.30;52.80
7844;DHT22;3967;48.702;9.326;2023-06-10T11:11:20;28.80;50.30
7844;DHT22;3967;48.702;9.326;2023-06-10T11:16:43;29.00;51.60
7844;DHT22;3967;48.702;9.326;2023-06-10T11:19:27;29.10;50.30
7844;DHT22;3967;48.702;9.326;2023-06-10T11:21:59;29.20;52.00
7844;DHT22;3967;48.702;9.326;2023-06-10T11:24:26;29.20;51.30
7844;DHT22;3967;48.702;9.326;2023-06-10T11:26:53;29.10;52.10
7844;DHT22;3967;48.702;9.326;2023-06-10T11:29:21;29.10;52.10
7844;DHT22;3967;48.702;9.326;2023-06-10T11:31:51;29.30;51.40
7844;DHT22;3967;48.702;9.326;2023-06-10T11:34:22;29.30;50.60
7844;DHT22;3967;48.702;9.326;2023-06-10T11:36:51;29.50;50.70
7844;DHT22;3967;48.702;9.326;2023-06-10T11:39:21;29.60;51.40
7844;DHT22;3967;48.702;9.326;2023-06-10T11:41:50;29.00;50.10
7844;DHT22;3967;48.702;9.326;2023-06-10T11:44:18;29.40;50.60
7844;DHT22;3967;48.702;9.326;2023-06-10T11:46:48;29.80;50.20
7844;DHT22;3967;48.702;9.326;2023-06-10T11:49:15;29.70;49.90
7844;DHT22;3967;48.702;9.326;2023-06-10T11:51:42;29.40;50.10
7844;DHT22;3967;48.702;9.326;2023-06-10T11:54:17;29.60;50.00
7844;DHT22;3967;48.702;9.326;2023-06-10T11:56:44;29.50;50.00
7844;DHT22;3967;48.702;9.326;2023-06-10T11:59:11;29.50;49.80
7844;DHT22;3967;48.702;9.326;2023-06-10T12:01:44;29.70;50.30
7844;DHT22;3967;48.702;9.326;2023-06-10T12:04:13;30.30;50.30
7844;DHT22;3967;48.702;9.326;2023-06-10T12:06:40;30.30;49.20
7844;DHT22;3967;48.702;9.326;2023-06-10T12:09:14;29.90;49.50
7844;DHT22;3967;48.702;9.326;2023-06-10T12:11:58;30.30;50.40
7844;DHT22;3967;48.702;9.326;2023-06-10T12:14:57;30.50;51.40
7844;DHT22;3967;48.702;9.326;2023-06-10T12:19:59;29.90;51.20
7844;DHT22;3967;48.702;9.326;2023-06-10T12:22:26;29.90;52.00
7844;DHT22;3967;48.702;9.326;2023-06-10T12:25:01;29.50;51.30
7844;DHT22;3967;48.702;9.326;2023-06-10T12:27:30;29.10;51.40
7844;DHT22;3967;48.702;9.326;2023-06-10T12:29:59;29.30;51.60
7844;DHT22;3967;48.702;9.326;2023-06-10T12:35:09;29.00;52.30
7844;DHT22;3967;48.702;9.326;2023-06-10T12:37:38;29.40;53.00
7844;DHT22;3967;48.702;9.326;2023-06-10T12:40:09;29.50;52.80
7844;DHT22;3967;48.702;9.326;2023-06-10T12:42:37;29.40;52.00
7844;DHT22;3967;48.702;9.326;2023-06-10T12:45:05;29.50;50.90
7844;DHT22;3967;48.702;9.326;2023-06-10T12:47:38;29.40;50.50
7844;DHT22;3967;48.702;9.326;2023-06-10T12:50:06;29.30;50.70
7844;DHT22;3967;48.702;9.326;2023-06-10T12:52:33;29.00;51.60
7844;DHT22;3967;48.702;9.326;2023-06-10T12:55:00;29.10;51.40
7844;DHT22;3967;48.702;9.326;2023-06-10T12:57:27;29.00;51.90
7844;DHT22;3967;48.702;9.326;2023-06-10T12:59:54;29.30;51.50
7844;DHT22;3967;48.702;9.326;2023-06-10T13:02:23;29.00;51.40
7844;DHT22;3967;48.702;9.326;2023-06-10T13:04:51;29.00;50.80
7844;DHT22;3967;48.702;9.326;2023-06-10T13:07:18;29.20;50.60
7844;DHT22;3967;48.702;9.326;2023-06-10T13:09:45;29.30;49.40
7844;DHT22;3967;48.702;9.326;2023-06-10T13:12:15;29.30;48.50
7844;DHT22;3967;48.702;9.326;2023-06-10T13:14:52;29.30;47.80
7844;DHT22;3967;48.702;9.326;2023-06-10T13:17:20;29.80;47.80
7844;DHT22;3967;48.702;9.326;2023-06-10T13:19:49;29.50;47.90
7844;DHT22;3967;48.702;9.326;2023-06-10T13:22:16;29.50;49.10
7844;DHT22;3967;48.702;9.326;2023-06-10T13:24:43;29.60;49.20
7844;DHT22;3967;48.702;9.326;2023-06-10T13:27:10;29.90;49.40
7844;DHT22;3967;48.702;9.326;2023-06-10T13:29:36;29.50;48.90
7844;DHT22;3967;48.702;9.326;2023-06-10T13:32:03;29.60;50.00
7844;DHT22;3967;48.702;9.326;2023-06-10T13:34:30;29.30;49.40
7844;DHT22;3967;48.702;9.326;2023-06-10T13:36:57;29.50;49.90
7844;DHT22;3967;48.702;9.326;2023-06-10T13:39:24;29.40;49.70
7844;DHT22;3967;48.702;9.326;2023-06-10T13:41:51;29.50;50.20
7844;DHT22;3967;48.702;9.326;2023-06-10T13:44:18;29.80;50.40
7844;DHT22;3967;48.702;9.326;2023-06-10T13:46:45;30.00;50.20
7844;DHT22;3967;48.702;9.326;2023-06-10T13:49:15;29.70;48.80
7844;DHT22;3967;48.702;9.326;2023-06-10T13:51:42;29.50;49.20
7844;DHT22;3967;48.702;9.326;2023-06-10T13:54:09;29.30;50.10
7844;DHT22;3967;48.702;9.326;2023-06-10T13:56:37;29.10;49.80
7844;DHT22;3967;48.702;9.326;2023-06-10T13:59:05;28.80;50.20
7844;DHT22;3967;48.702;9.326;2023-06-10T14:01:32;28.70;50.10
7844;DHT22;3967;48.702;9.326;2023-06-10T14:03:59;28.60;50.70
7844;DHT22;3967;48.702;9.326;2023-06-10T14:06:26;28.80;50.70
7844;DHT22;3967;48.702;9.326;2023-06-10T14:08:53;28.80;50.40
7844;DHT22;3967;48.702;9.326;2023-06-10T14:11:21;29.30;51.40
7844;DHT22;3967;48.702;9.326;2023-06-10T14:13:48;29.50;51.00
7844;DHT22;3967;48.702;9.326;2023-06-10T14:16:14;29.80;49.80
7844;DHT22;3967;48.702;9.326;2023-06-10T14:18:41;29.50;50.20
7844;DHT22;3967;48.702;9.326;2023-06-10T14:21:08;29.50;49.80
7844;DHT22;3967;48.702;9.326;2023-06-10T14:23:35;29.20;50.10
7844;DHT22;3967;48.702;9.326;2023-06-10T14:26:02;29.40;50.70
7844;DHT22;3967;48.702;9.326;2023-06-10T14:28:29;29.60;51.80
7844;DHT22;3967;48.702;9.326;2023-06-10T14:30:56;29.60;51.00
7844;DHT22;3967;48.702;9.326;2023-06-10T14:33:24;29.50;49.40
7844;DHT22;3967;48.702;9.326;2023-06-10T14:35:51;29.30;49.80
7844;DHT22;3967;48.702;9.326;2023-06-10T14:38:17;29.40;50.40
7844;DHT22;3967;48.702;9.326;2023-06-10T14:40:45;29.20;49.60
7844;DHT22;3967;48.702;9.326;2023-06-10T14:43:11;29.20;49.70
7844;DHT22;3967;48.702;9.326;2023-06-10T14:45:39;29.30;50.20
7844;DHT22;3967;48.702;9.326;2023-06-10T14:48:07;29.40;49.90
7844;DHT22;3967;48.702;9.326;2023-06-10T14:50:37;29.40;49.10
7844;DHT22;3967;48.702;9.326;2023-06-10T14:53:05;29.50;48.90
7844;DHT22;3967;48.702;9.326;2023-06-10T14:55:31;29.70;49.30
7844;DHT22;3967;48.702;9.326;2023-06-10T14:57:58;29.90;51.20
7844;DHT22;3967;48.702;9.326;2023-06-10T15:00:25;29.80;50.20
7844;DHT22;3967;48.702;9.326;2023-06-10T15:02:52;29.20;51.20
7844;DHT22;3967;48.702;9.326;2023-06-10T15:05:22;29.10;51.80
7844;DHT22;3967;48.702;9.326;2023-06-10T15:07:49;28.70;51.40
7844;DHT22;3967;48.702;9.326;2023-06-10T15:10:15;28.50;51.50
7844;DHT22;3967;48.702;9.326;2023-06-10T15:12:42;28.40;51.70
7844;DHT22;3967;48.702;9.326;2023-06-10T15:15:09;28.40;51.90
7844;DHT22;3967;48.702;9.326;2023-06-10T15:17:37;28.60;51.90
7844;DHT22;3967;48.702;9.326;2023-06-10T15:20:05;28.80;51.70
7844;DHT22;3967;48.702;9.326;2023-06-10T15:22:32;28.80;51.70
7844;DHT22;3967;48.702;9.326;2023-06-10T15:25:02;28.90;51.30
7844;DHT22;3967;48.702;9.326;2023-06-10T15:27:46;28.90;51.20
7844;DHT22;3967;48.702;9.326;2023-06-10T15:30:13;29.20;50.40
7844;DHT22;3967;48.702;9.326;2023-06-10T15:32:40;29.00;49.90
7844;DHT22;3967;48.702;9.326;2023-06-10T15:35:07;28.80;50.40
7844;DHT22;3967;48.702;9.326;2023-06-10T15:37:35;29.00;50.20
7844;DHT22;3967;48.702;9.326;2023-06-10T15:40:02;29.10;50.50
7844;DHT22;3967;48.702;9.326;2023-06-10T15:42:29;29.10;49.90
7844;DHT22;3967;48.702;9.326;2023-06-10T15:44:56;29.20;50.10
7844;DHT22;3967;48.702;9.326;2023-06-10T15:47:22;29.20;50.30
7844;DHT22;3967;48.702;9.326;2023-06-10T15:49:49;29.20;50.70
7844;DHT22;3967;48.702;9.326;2023-06-10T15:52:16;29.30;50.40
7844;DHT22;3967;48.702;9.326;2023-06-10T15:54:43;29.00;49.60
7844;DHT22;3967;48.702;9.326;2023-06-10T15:57:10;29.10;49.40
7844;DHT22;3967;48.702;9.326;2023-06-10T15:59:37;29.00;49.70
7844;DHT22;3967;48.702;9.326;2023-06-10T16:02:04;29.00;49.80
7844;DHT22;3967;48.702;9.326;2023-06-10T16:04:31;29.10;50.00
7844;DHT22;3967;48.702;9.326;2023-06-10T16:06:57;29.40;50.20
7844;DHT22;3967;48.702;9.326;2023-06-10T16:09:24;29.30;50.00
7844;DHT22;3967;48.702;9.326;2023-06-10T16:11:54;29.30;49.70
7844;DHT22;3967;48.702;9.326;2023-06-10T16:14:21;29.30;49.40
7844;DHT22;3967;48.702;9.326;2023-06-10T16:16:48;29.00;48.90
7844;DHT22;3967;48.702;9.326;2023-06-10T16:19:14;29.00;49.00
7844;DHT22;3967;48.702;9.326;2023-06-10T16:21:41;29.00;49.40
7844;DHT22;3967;48.702;9.326;2023-06-10T16:24:08;29.10;49.00
7844;DHT22;3967;48.702;9.326;2023-06-10T16:26:36;29.10;48.90
7844;DHT22;3967;48.702;9.326;2023-06-10T16:29:03;29.20;49.20